Time;durP1;ratioP1;P1;durP2;ratioP2;P2;SDS_P1;SDS_P2;PMS_P1;PMS_P2;Temp;Humidity;BMP_temperature;BMP_pressure;BME280_temperature;BME280_humidity;BME280_pressure;Samples;Min_cycle;Max_cycle;Signal;HPM_P1;HPM_P2
2022/07/14 00:01:19;;;;;;;27.92;4.13;;;;;;;15.26;68.01;101705.91;4971344;28;20110;-70
2022/07/14 00:03:44;;;;;;;25.15;4.38;;;;;;;15.27;67.98;101713.06;4971420;28;20019;-70
2022/07/14 00:06:10;;;;;;;25.35;4.35;;;;;;;15.22;68.12;101704.53;4954727;23;1172525;-72
2022/07/14 00:08:35;;;;;;;32.42;3.75;;;;;;;15.28;67.76;101714.78;5029366;28;20090;-72
2022/07/14 00:11:02;;;;;;;27.15;4.00;;;;;;;15.19;68.10;101715.75;5026408;28;20032;-72
2022/07/14 00:13:27;;;;;;;31.88;4.07;;;;;;;15.17;68.11;101715.09;5032544;28;20048;-72
2022/07/14 00:15:53;;;;;;;20.15;3.92;;;;;;;15.10;68.46;101714.06;5047832;28;20029;-72
2022/07/14 00:18:18;;;;;;;27.30;3.60;;;;;;;15.20;68.19;101720.22;5031352;28;20048;-72
2022/07/14 00:20:44;;;;;;;32.30;4.97;;;;;;;15.18;68.16;101719.50;5043422;28;20124;-72
2022/07/14 00:23:10;;;;;;;42.58;4.93;;;;;;;15.14;68.08;101724.47;5031818;28;20021;-72
2022/07/14 00:25:35;;;;;;;19.23;4.18;;;;;;;15.14;68.06;101712.72;5031720;28;20029;-72
2022/07/14 00:28:01;;;;;;;25.27;4.57;;;;;;;15.07;68.08;101717.13;5047988;28;20028;-72
2022/07/14 00:30:26;;;;;;;28.48;4.53;;;;;;;14.96;68.74;101714.72;5032035;28;20095;-72
2022/07/14 00:32:52;;;;;;;17.15;3.50;;;;;;;15.01;68.92;101706.88;5031293;28;20035;-71
2022/07/14 00:35:18;;;;;;;37.25;4.20;;;;;;;15.03;68.73;101710.28;5029962;28;20059;-72
2022/07/14 00:37:43;;;;;;;25.23;4.07;;;;;;;14.99;68.68;101711.63;5031758;28;20013;-72
2022/07/14 00:40:09;;;;;;;23.80;4.18;;;;;;;14.89;68.87;101709.91;5031394;28;20040;-71
2022/07/14 00:42:40;;;;;;;22.90;4.18;;;;;;;14.90;68.74;101717.06;5031694;28;20035;-72
2022/07/14 00:45:14;;;;;;;28.33;4.30;;;;;;;15.13;67.85;101721.91;5031500;28;20029;-72
2022/07/14 00:47:41;;;;;;;25.15;4.72;;;;;;;14.96;68.21;101720.16;5030863;28;20032;-72
2022/07/14 00:50:08;;;;;;;31.73;4.43;;;;;;;15.03;67.59;101710.28;5031646;28;20446;-72
2022/07/14 00:52:34;;;;;;;21.48;4.72;;;;;;;15.04;67.85;101706.53;5032807;28;20025;-72
2022/07/14 00:54:59;;;;;;;27.13;3.80;;;;;;;14.89;68.33;101699.00;5035434;28;20016;-72
2022/07/14 00:57:25;;;;;;;31.50;4.63;;;;;;;14.80;68.18;101710.03;5035277;28;20066;-70
2022/07/14 00:59:51;;;;;;;21.52;4.25;;;;;;;14.91;68.40;101707.88;5034371;28;20024;-70
2022/07/14 01:02:18;;;;;;;23.13;4.00;;;;;;;14.89;68.42;101715.38;5033205;28;20108;-70
2022/07/14 01:04:45;;;;;;;23.60;4.18;;;;;;;14.82;68.63;101708.88;5034446;28;20464;-70
2022/07/14 01:07:12;;;;;;;24.77;4.22;;;;;;;14.81;68.70;101709.91;5035178;28;20029;-70
2022/07/14 01:09:38;;;;;;;22.17;3.45;;;;;;;14.68;69.17;101712.25;5034788;28;20025;-70
2022/07/14 01:12:03;;;;;;;23.55;3.30;;;;;;;14.72;69.14;101701.84;5034871;28;20028;-70
2022/07/14 01:14:29;;;;;;;26.52;3.67;;;;;;;14.78;68.96;101707.47;5034313;28;20016;-70
2022/07/14 01:16:55;;;;;;;21.88;3.78;;;;;;;14.80;68.92;101705.47;5035136;28;20017;-70
2022/07/14 01:19:22;;;;;;;28.27;3.80;;;;;;;14.79;68.95;101698.28;5034327;28;20024;-70
2022/07/14 01:21:50;;;;;;;24.05;3.35;;;;;;;14.84;68.81;101703.25;5034836;28;20441;-70
2022/07/14 01:24:15;;;;;;;25.02;4.35;;;;;;;14.96;68.29;101701.91;5035353;28;20503;-70
2022/07/14 01:26:41;;;;;;;42.78;4.40;;;;;;;15.03;67.95;101702.09;5052517;28;20020;-70
2022/07/14 01:29:06;;;;;;;27.08;3.90;;;;;;;14.84;68.68;101706.81;5033901;28;20025;-70
2022/07/14 01:31:33;;;;;;;20.10;3.67;;;;;;;14.82;68.64;101697.97;5034595;28;20044;-70
2022/07/14 01:33:58;;;;;;;22.95;3.67;;;;;;;14.70;69.48;101693.84;5034508;28;20033;-70
2022/07/14 01:36:24;;;;;;;27.75;3.53;;;;;;;14.58;69.46;101689.69;5034273;28;20108;-70
2022/07/14 01:38:52;;;;;;;21.50;3.92;;;;;;;14.60;69.44;101693.94;5050922;28;20108;-71
2022/07/14 01:41:18;;;;;;;18.67;3.38;;;;;;;14.73;68.98;101685.31;5034396;28;20028;-71
2022/07/14 01:43:44;;;;;;;31.35;3.30;;;;;;;14.75;68.69;101686.03;5032477;28;20424;-71
2022/07/14 01:46:09;;;;;;;35.70;4.28;;;;;;;14.83;68.81;101691.50;5029700;28;20155;-71
2022/07/14 01:48:35;;;;;;;25.88;4.05;;;;;;;14.79;68.64;101691.97;5033532;28;20036;-71
2022/07/14 01:51:00;;;;;;;27.30;3.95;;;;;;;14.61;69.56;101683.94;5050977;28;20389;-71
2022/07/14 01:53:25;;;;;;;20.67;3.30;;;;;;;14.67;69.12;101688.72;5034330;28;20029;-71
2022/07/14 01:55:51;;;;;;;18.67;3.25;;;;;;;14.71;69.05;101690.09;5030902;28;20018;-71
2022/07/14 01:58:16;;;;;;;29.50;5.18;;;;;;;14.55;69.37;101695.50;5030017;28;20044;-71
2022/07/14 02:00:41;;;;;;;20.60;3.20;;;;;;;14.58;69.23;101695.16;5033812;28;20082;-71
2022/07/14 02:03:07;;;;;;;32.30;4.28;;;;;;;14.63;69.05;101692.78;5051628;28;20025;-71
2022/07/14 02:05:32;;;;;;;24.75;4.70;;;;;;;14.66;68.92;101687.84;5033208;28;20100;-71
2022/07/14 02:07:57;;;;;;;20.30;3.47;;;;;;;14.64;69.05;101678.13;5050368;28;20507;-71
2022/07/14 02:13:07;;;;;;;20.48;3.65;;;;;;;14.76;68.61;101687.72;5051390;28;20060;-71
2022/07/14 02:15:32;;;;;;;20.70;3.92;;;;;;;14.79;68.21;101681.91;5024905;28;20049;-71
2022/07/14 02:17:57;;;;;;;16.20;3.00;;;;;;;14.74;68.27;101684.31;5033516;28;20102;-71
2022/07/14 02:20:23;;;;;;;32.33;4.60;;;;;;;14.76;68.47;101676.81;5033841;28;20020;-71
2022/07/14 02:22:48;;;;;;;24.13;3.88;;;;;;;14.66;68.36;101676.09;5033336;28;20105;-71
2022/07/14 02:25:14;;;;;;;17.08;3.50;;;;;;;14.60;69.29;101682.19;5033141;28;20075;-71
2022/07/14 02:27:39;;;;;;;21.67;3.25;;;;;;;14.52;69.25;101684.91;5033751;28;20074;-71
2022/07/14 02:30:05;;;;;;;24.55;3.83;;;;;;;14.51;69.36;101692.22;5051104;28;20108;-71
2022/07/14 02:32:31;;;;;;;18.48;3.88;;;;;;;14.58;69.23;101695.16;5033271;28;20388;-71
2022/07/14 02:34:58;;;;;;;22.17;3.60;;;;;;;14.48;69.32;101699.91;5033117;28;20035;-71
2022/07/14 02:37:23;;;;;;;16.65;4.00;;;;;;;14.51;69.42;101700.41;5033477;28;20120;-71
2022/07/14 02:39:48;;;;;;;23.10;3.50;;;;;;;14.60;69.22;101693.09;5050728;28;20515;-71
2022/07/14 02:42:14;;;;;;;21.05;3.33;;;;;;;14.51;69.37;101699.56;5033366;28;20033;-71
2022/07/14 02:44:39;;;;;;;16.27;3.80;;;;;;;14.43;69.78;101696.75;5032968;28;20021;-71
2022/07/14 02:47:04;;;;;;;20.00;3.80;;;;;;;14.35;70.27;101695.72;5051213;28;20115;-71
2022/07/14 02:49:30;;;;;;;17.10;3.42;;;;;;;14.36;70.16;101697.41;5032716;28;20046;-71
2022/07/14 02:51:55;;;;;;;15.05;3.25;;;;;;;14.39;69.88;101697.06;5033109;28;20031;-71
2022/07/14 02:54:21;;;;;;;21.65;4.30;;;;;;;14.36;68.91;101686.53;5032721;28;20035;-71
2022/07/14 02:56:46;;;;;;;23.02;3.42;;;;;;;14.26;70.14;101691.22;5030191;28;20090;-71
2022/07/14 02:59:12;;;;;;;24.27;4.13;;;;;;;14.27;69.75;101692.94;5033127;28;20023;-71
2022/07/14 03:01:38;;;;;;;22.80;3.92;;;;;;;14.35;69.69;101695.72;5032518;28;20028;-71
2022/07/14 03:04:03;;;;;;;24.85;4.18;;;;;;;14.26;69.56;101696.66;5032915;28;20099;-70
2022/07/14 03:06:29;;;;;;;19.45;3.47;;;;;;;14.23;70.28;101691.56;5032449;28;20028;-70
2022/07/14 03:08:54;;;;;;;17.75;3.58;;;;;;;14.18;70.68;101685.75;5032572;28;20307;-70
2022/07/14 03:11:20;;;;;;;16.95;4.20;;;;;;;14.18;70.74;101693.06;5032645;28;20029;-70
2022/07/14 03:13:46;;;;;;;23.15;4.68;;;;;;;14.17;70.04;101691.34;5032893;28;20016;-70
2022/07/14 03:16:12;;;;;;;18.60;3.17;;;;;;;14.17;69.67;101692.22;5032083;28;20024;-70
2022/07/14 03:18:39;;;;;;;33.63;4.82;;;;;;;14.15;69.90;101694.25;5032087;28;20017;-70
2022/07/14 03:21:06;;;;;;;23.77;3.45;;;;;;;14.16;69.83;101693.22;5033007;28;20013;-70
2022/07/14 03:23:32;;;;;;;14.02;3.13;;;;;;;14.12;69.33;101689.97;5032473;28;20021;-70
2022/07/14 03:25:57;;;;;;;18.23;3.50;;;;;;;14.04;69.48;101697.22;5032895;28;20078;-70
2022/07/14 03:28:22;;;;;;;14.73;3.10;;;;;;;14.02;70.10;101691.09;5032465;28;20123;-70
2022/07/14 03:30:53;;;;;;;18.77;3.20;;;;;;;14.05;69.79;101688.03;5050102;28;20017;-70
2022/07/14 03:33:19;;;;;;;17.33;3.03;;;;;;;14.06;70.15;101692.47;5032648;28;20048;-70
2022/07/14 03:35:44;;;;;;;23.00;3.30;;;;;;;13.95;71.22;101681.84;5032327;28;20028;-70
2022/07/14 03:38:10;;;;;;;21.88;4.45;;;;;;;13.99;71.57;101684.09;5031822;28;20095;-71
2022/07/14 03:40:35;;;;;;;15.35;3.55;;;;;;;14.07;71.33;101680.56;5032440;28;20024;-71
2022/07/14 03:43:01;;;;;;;14.63;3.20;;;;;;;14.01;71.60;101681.19;5032376;28;20029;-71
2022/07/14 03:45:27;;;;;;;26.95;3.80;;;;;;;14.09;70.94;101684.00;5031647;28;20043;-71
2022/07/14 03:47:52;;;;;;;25.65;3.42;;;;;;;14.28;70.61;101683.75;5032257;28;20031;-71
2022/07/14 03:50:18;;;;;;;26.83;4.60;;;;;;;14.24;70.44;101679.66;5032186;28;20112;-71
2022/07/14 03:52:43;;;;;;;19.73;3.22;;;;;;;14.22;70.40;101689.84;5028688;28;20068;-71
2022/07/14 03:55:08;;;;;;;24.02;3.92;;;;;;;14.19;70.56;101690.16;5031330;28;20036;-71
2022/07/14 03:57:34;;;;;;;17.13;3.75;;;;;;;14.15;71.10;101694.25;5032269;28;20029;-71
2022/07/14 04:00:00;;;;;;;17.50;3.58;;;;;;;13.98;71.80;101700.59;5031624;28;20021;-71
2022/07/14 04:02:25;;;;;;;21.08;4.38;;;;;;;14.13;71.48;101693.53;5026334;28;20075;-71
2022/07/14 04:04:50;;;;;;;21.58;4.32;;;;;;;14.22;71.05;101694.44;5046988;28;20025;-71
2022/07/14 04:07:16;;;;;;;17.17;3.90;;;;;;;14.20;71.06;101707.34;5031280;28;20028;-71
2022/07/14 04:09:41;;;;;;;20.65;4.45;;;;;;;14.21;71.26;101704.47;5028739;28;20033;-71
2022/07/14 04:12:07;;;;;;;20.42;3.90;;;;;;;14.25;71.03;101700.41;5028365;28;20044;-71
2022/07/14 04:14:32;;;;;;;24.67;4.57;;;;;;;14.22;70.84;101705.34;5049199;28;20048;-71
2022/07/14 04:16:57;;;;;;;15.90;3.47;;;;;;;14.26;70.60;101707.56;5031880;28;20021;-71
2022/07/14 04:19:23;;;;;;;21.05;3.90;;;;;;;14.33;70.92;101703.16;5032064;28;20055;-71
2022/07/14 04:21:48;;;;;;;23.88;3.75;;;;;;;14.48;70.25;101705.34;5031725;28;20020;-71
2022/07/14 04:24:14;;;;;;;22.38;3.05;;;;;;;14.54;69.75;101704.66;5031719;28;20078;-71
2022/07/14 04:26:40;;;;;;;15.60;3.28;;;;;;;14.55;69.86;101706.41;5031793;28;20047;-71
2022/07/14 04:29:06;;;;;;;14.20;3.40;;;;;;;14.67;69.10;101699.63;5035613;28;20078;-71
2022/07/14 04:31:31;;;;;;;18.92;3.42;;;;;;;14.63;68.82;101703.69;5035579;28;20469;-71
2022/07/14 04:33:57;;;;;;;21.75;3.65;;;;;;;14.59;69.39;101696.84;5035759;28;20163;-71
2022/07/14 04:36:23;;;;;;;24.83;3.58;;;;;;;14.63;69.07;101698.25;5034456;28;20021;-71
2022/07/14 04:38:48;;;;;;;22.52;3.30;;;;;;;14.87;68.05;101705.66;5029448;28;20021;-71
2022/07/14 04:41:13;;;;;;;18.88;3.70;;;;;;;15.03;67.74;101713.00;5035681;28;20021;-71
2022/07/14 04:43:38;;;;;;;20.33;2.63;;;;;;;14.96;68.12;101703.78;5035299;28;20029;-71
2022/07/14 04:46:05;;;;;;;20.13;3.92;;;;;;;14.96;68.36;101714.72;5033309;28;20025;-71
2022/07/14 04:48:31;;;;;;;28.23;4.03;;;;;;;14.89;68.65;101711.78;5031520;28;20025;-71
2022/07/14 04:53:41;;;;;;;24.67;3.88;;;;;;;14.96;68.18;101714.72;5053172;28;20020;-71
2022/07/14 04:56:06;;;;;;;31.38;4.35;;;;;;;15.13;67.14;101708.28;5044545;28;20033;-71
2022/07/14 04:58:32;;;;;;;24.80;3.05;;;;;;;15.22;67.47;101710.00;5035190;28;20111;-71
2022/07/14 05:01:00;;;;;;;11.60;2.20;;;;;;;15.16;66.42;101721.56;5031257;28;20021;-71
2022/07/14 05:03:25;;;;;;;15.60;3.17;;;;;;;15.25;66.37;101715.09;5032698;28;20021;-71
2022/07/14 05:05:51;;;;;;;14.63;2.50;;;;;;;15.25;65.21;101720.53;5034070;28;20036;-71
2022/07/14 05:08:16;;;;;;;14.38;2.47;;;;;;;15.35;65.16;101721.25;5034988;28;20021;-71
2022/07/14 05:10:42;;;;;;;18.42;3.17;;;;;;;15.37;65.69;101724.66;5034972;28;20111;-71
2022/07/14 05:13:07;;;;;;;16.92;2.22;;;;;;;15.46;64.08;101729.13;5034630;28;20059;-71
2022/07/14 05:15:33;;;;;;;15.82;3.10;;;;;;;15.58;63.80;101736.97;5034681;28;20546;-71
2022/07/14 05:17:58;;;;;;;18.58;2.78;;;;;;;15.58;63.67;101726.03;5034856;28;20017;-72
2022/07/14 05:20:24;;;;;;;17.92;3.17;;;;;;;15.50;63.57;101728.78;5034122;28;20036;-71
2022/07/14 05:22:49;;;;;;;13.27;2.45;;;;;;;15.52;63.35;101726.72;5051683;28;20047;-71
2022/07/14 05:25:14;;;;;;;19.48;2.50;;;;;;;15.73;62.90;101724.38;5034241;28;20054;-71
2022/07/14 05:27:41;;;;;;;12.13;1.77;;;;;;;15.93;62.19;101725.72;5034636;28;20021;-71
2022/07/14 05:30:08;;;;;;;13.93;2.45;;;;;;;15.95;62.30;101726.41;5034729;28;20048;-71
2022/07/14 05:32:35;;;;;;;13.35;2.38;;;;;;;15.91;62.54;101727.78;5034610;28;20029;-71
2022/07/14 05:35:01;;;;;;;15.82;3.20;;;;;;;15.87;62.81;101720.94;5051111;28;20028;-71
2022/07/14 05:37:26;;;;;;;7.72;2.28;;;;;;;15.92;61.54;101723.19;5052144;28;20032;-71
2022/07/14 05:39:52;;;;;;;11.95;2.50;;;;;;;15.91;60.92;101733.25;5033215;28;20021;-72
2022/07/14 05:42:21;;;;;;;14.13;1.88;;;;;;;15.81;61.53;101735.28;5034669;28;20029;-71
2022/07/14 05:44:47;;;;;;;16.77;2.97;;;;;;;15.96;61.79;101730.84;5031665;28;20040;-71
2022/07/14 05:47:19;;;;;;;16.52;2.75;;;;;;;16.33;60.98;101726.69;5032480;28;20087;-71
2022/07/14 05:49:45;;;;;;;;;;;;;;;16.43;59.48;101727.34;5029822;28;20017;-71
2022/07/14 05:52:11;;;;;;;13.18;2.40;;;;;;;16.20;59.91;101726.38;5033596;28;19920;-71
2022/07/14 05:54:36;;;;;;;12.88;1.88;;;;;;;16.26;60.08;101725.66;5030675;28;20024;-71
2022/07/14 05:57:02;;;;;;;17.02;2.38;;;;;;;16.26;60.26;101720.19;5033724;28;20021;-71
2022/07/14 05:59:27;;;;;;;13.55;2.38;;;;;;;16.55;59.52;101720.44;5032192;28;20014;-71
2022/07/14 06:01:52;;;;;;;13.57;2.33;;;;;;;16.66;59.33;101721.09;5033183;28;20029;-71
2022/07/14 06:04:18;;;;;;;15.02;2.38;;;;;;;16.36;60.16;101720.00;5031359;28;20083;-71
2022/07/14 06:06:47;;;;;;;14.75;2.22;;;;;;;16.51;59.38;101723.72;5021470;28;20079;-71
2022/07/14 06:09:14;;;;;;;14.38;2.10;;;;;;;16.39;59.98;101723.25;5032766;28;20125;-71
2022/07/14 06:11:43;;;;;;;14.07;2.33;;;;;;;16.14;61.17;101727.06;5032923;28;20036;-71
2022/07/14 06:14:09;;;;;;;11.55;1.83;;;;;;;16.34;60.48;101725.63;5050986;28;20545;-71
2022/07/14 06:16:34;;;;;;;13.00;1.85;;;;;;;16.15;60.32;101723.28;5046384;28;20112;-71
2022/07/14 06:19:00;;;;;;;20.23;2.63;;;;;;;16.27;60.04;101727.38;5033151;28;20027;-71
2022/07/14 06:21:25;;;;;;;7.45;1.67;;;;;;;16.44;59.67;101718.09;5032916;28;20020;-71
2022/07/14 06:23:51;;;;;;;16.13;2.28;;;;;;;16.54;59.55;101724.19;5032999;28;20021;-71
2022/07/14 06:26:16;;;;;;;15.02;2.70;;;;;;;16.82;58.93;101718.28;5033457;28;20024;-71
2022/07/14 06:28:42;;;;;;;13.38;1.90;;;;;;;17.22;57.97;101716.38;5033314;28;20036;-71
2022/07/14 06:31:08;;;;;;;10.55;2.28;;;;;;;17.01;58.36;101715.13;5032841;28;20021;-70
2022/07/14 06:33:33;;;;;;;11.10;2.00;;;;;;;16.70;59.16;101717.88;5033303;28;20131;-68
2022/07/14 06:35:59;;;;;;;9.55;2.13;;;;;;;16.44;59.80;101718.09;5029204;28;20025;-68
2022/07/14 06:38:24;;;;;;;15.30;1.88;;;;;;;16.97;59.18;101719.25;5032575;28;20100;-68
2022/07/14 06:40:49;;;;;;;9.57;1.52;;;;;;;16.95;58.54;101704.03;5032820;28;20021;-68
2022/07/14 06:43:15;;;;;;;14.32;2.13;;;;;;;16.84;57.87;101708.06;5033159;28;20108;-68
2022/07/14 06:45:40;;;;;;;15.15;2.03;;;;;;;16.59;58.55;101710.00;5032373;28;20032;-68
2022/07/14 06:48:06;;;;;;;13.23;2.13;;;;;;;16.82;58.04;101699.16;5033537;28;20025;-68
2022/07/14 06:50:31;;;;;;;6.05;1.50;;;;;;;16.85;57.50;101708.91;5028810;28;20048;-69
2022/07/14 06:52:57;;;;;;;9.75;2.33;;;;;;;16.67;58.14;101706.38;5017924;28;20021;-69
2022/07/14 06:55:22;;;;;;;17.27;2.03;;;;;;;16.97;56.52;101702.84;5018096;28;20045;-68
2022/07/14 06:57:48;;;;;;;9.15;1.98;;;;;;;17.06;55.88;101704.50;5032623;28;20025;-67
2022/07/14 07:00:14;;;;;;;8.13;2.25;;;;;;;17.54;55.22;101694.25;5037656;28;20025;-68
2022/07/14 07:02:40;;;;;;;8.07;1.65;;;;;;;17.21;54.56;101692.75;5025046;28;20066;-67
2022/07/14 07:07:51;;;;;;;11.65;1.83;;;;;;;17.02;55.11;101700.44;5043545;28;20021;-68
2022/07/14 07:10:17;;;;;;;12.80;1.67;;;;;;;17.17;54.53;101697.75;5020846;28;20061;-68
2022/07/14 07:12:43;;;;;;;6.53;1.70;;;;;;;17.07;54.95;101692.50;5024986;28;20145;-69
2022/07/14 07:15:09;;;;;;;12.07;1.17;;;;;;;17.48;54.54;101678.53;5025353;28;20021;-68
2022/07/14 07:17:34;;;;;;;8.48;2.15;;;;;;;17.85;53.40;101690.53;5026106;28;20029;-69
2022/07/14 07:20:00;;;;;;;13.70;2.10;;;;;;;17.07;55.39;101689.78;5025599;28;20074;-68
2022/07/14 07:22:26;;;;;;;5.90;1.27;;;;;;;17.00;54.60;101677.84;5023954;28;20034;-68
2022/07/14 07:24:51;;;;;;;7.78;1.77;;;;;;;16.91;55.01;101681.69;5025043;28;20070;-68
2022/07/14 07:27:16;;;;;;;5.60;1.33;;;;;;;17.12;55.22;101671.97;5026269;28;20166;-68
2022/07/14 07:33:03;;;;;;;11.80;1.88;;;;;;;17.67;52.66;101665.34;5701357;23;20053;-74
2022/07/14 07:35:45;;;;;;;7.03;1.63;;;;;;;17.81;52.68;101672.81;4966767;28;20133;-74
2022/07/14 07:38:20;;;;;;;10.13;1.58;;;;;;;17.68;53.15;101667.06;4968880;28;20130;-74
2022/07/14 07:40:49;;;;;;;12.48;1.30;;;;;;;17.25;53.45;101677.69;4967597;28;20023;-73
2022/07/14 07:43:23;;;;;;;7.30;1.17;;;;;;;17.14;53.37;101675.38;4964657;28;20031;-74
2022/07/14 07:46:47;;;;;;;4.50;1.02;;;;;;;17.48;52.13;101670.31;4974696;28;20117;-74
2022/07/14 07:49:22;;;;;;;6.57;1.45;;;;;;;17.24;53.50;101667.78;4965371;28;20050;-74
2022/07/14 07:52:09;;;;;;;9.43;1.30;;;;;;;17.69;52.55;101674.25;4957930;28;20037;-74
2022/07/14 07:54:36;;;;;;;7.72;1.02;;;;;;;17.59;52.43;101672.59;4974013;28;20046;-74
2022/07/14 07:57:25;;;;;;;8.93;1.80;;;;;;;18.27;51.23;101653.47;4969133;28;20023;-73
2022/07/14 07:59:55;;;;;;;3.95;1.20;;;;;;;18.55;50.61;101651.72;4972459;28;20022;-74
2022/07/14 08:02:29;;;;;;;9.18;1.30;;;;;;;18.96;49.44;101656.66;4952505;28;20023;-74
2022/07/14 08:08:07;;;;;;;7.07;1.50;;;;;;;17.72;51.68;101662.94;4946226;28;20057;-73
2022/07/14 08:10:46;;;;;;;7.80;1.30;;;;;;;17.33;53.35;101652.97;4977206;28;20031;-73
2022/07/14 08:13:31;;;;;;;9.68;1.33;;;;;;;18.08;51.40;101639.28;4974230;28;20031;-73
2022/07/14 08:16:29;;;;;;;5.80;1.25;;;;;;;18.83;49.91;101640.03;4967977;28;20030;-73
2022/07/14 08:19:22;;;;;;;5.55;1.90;;;;;;;19.06;48.83;101629.75;4966019;28;20039;-73
2022/07/14 08:22:18;;;;;;;7.88;1.75;;;;;;;19.82;47.41;101640.13;4971323;28;20022;-73
2022/07/14 08:24:58;;;;;;;3.22;1.10;;;;;;;20.50;45.11;101632.97;4972603;28;20046;-73
2022/07/14 08:27:42;;;;;;;;;;;;;;;;;;;;;
2022/07/14 08:30:28;;;;;;;6.47;1.55;;;;;;;18.36;49.75;101641.34;4965735;28;20027;-73
2022/07/14 08:32:57;;;;;;;4.00;1.48;;;;;;;18.20;49.28;101625.09;4970871;28;20027;-73
2022/07/14 08:35:47;;;;;;;6.63;1.40;;;;;;;18.30;48.46;101639.34;4977676;28;20391;-71
2022/07/14 08:38:18;;;;;;;13.98;1.40;;;;;;;18.67;48.60;101631.00;4979118;28;20034;-72
2022/07/14 08:41:08;;;;;;;10.98;1.50;;;;;;;19.39;47.26;101626.47;4982227;28;20373;-72
2022/07/14 08:43:41;;;;;;;5.55;1.33;;;;;;;18.85;48.93;101616.03;4953567;28;20362;-73
2022/07/14 08:46:12;;;;;;;6.55;1.20;;;;;;;19.77;45.03;101621.53;4955462;28;20038;-72
2022/07/14 08:48:48;;;;;;;7.03;1.42;;;;;;;19.79;45.01;101620.25;4956866;28;20444;-75
2022/07/14 08:51:22;;;;;;;6.75;1.35;;;;;;;19.21;48.02;101616.78;4976826;28;20113;-73
2022/07/14 08:54:12;;;;;;;5.70;1.20;;;;;;;19.01;49.01;101618.50;4968964;28;20026;-73
2022/07/14 08:56:42;;;;;;;10.82;1.50;;;;;;;18.51;48.96;101614.72;4963988;28;20027;-73
2022/07/14 08:59:12;;;;;;;7.95;1.10;;;;;;;18.10;49.00;101620.75;4961453;28;20075;-73
2022/07/14 09:01:49;;;;;;;7.82;1.25;;;;;;;18.54;47.56;101617.09;4974655;28;20031;-74
2022/07/14 09:04:17;;;;;;;6.70;1.02;;;;;;;19.21;46.73;101602.22;4954771;28;20090;-74
2022/07/14 09:06:58;;;;;;;10.60;1.25;;;;;;;20.37;43.62;101602.59;4976455;28;20514;-73
2022/07/14 09:09:46;;;;;;;7.22;0.98;;;;;;;20.43;43.38;101590.78;4985946;28;20027;-74
2022/07/14 09:12:31;;;;;;;8.00;1.60;;;;;;;20.62;43.45;101614.81;4971939;28;20048;-74
2022/07/14 09:18:11;;;;;;;4.97;1.13;;;;;;;18.89;46.04;101607.19;4978364;28;20023;-73
2022/07/14 09:21:17;;;;;;;5.63;1.17;;;;;;;18.78;42.33;101601.34;4971911;28;20097;-72
2022/07/14 09:23:44;;;;;;;7.28;0.88;;;;;;;19.49;40.77;101602.22;4971366;28;20023;-72
2022/07/14 09:26:18;;;;;;;3.05;0.70;;;;;;;20.19;39.37;101598.50;4972539;28;20031;-72
2022/07/14 09:28:46;;;;;;;9.45;1.17;;;;;;;20.59;40.44;101598.69;4953593;28;20058;-72
2022/07/14 09:31:23;;;;;;;5.03;1.15;;;;;;;20.65;40.53;101592.34;4969284;28;20022;-73
2022/07/14 09:33:51;;;;;;;5.32;1.08;;;;;;;20.13;41.83;101593.81;4977789;28;20105;-73
2022/07/14 09:36:26;;;;;;;7.32;1.48;;;;;;;19.81;43.42;101588.97;4975957;28;20047;-72
2022/07/14 09:38:57;;;;;;;8.05;1.40;;;;;;;19.93;43.05;101581.88;4973645;28;20498;-73
2022/07/14 09:41:27;;;;;;;4.88;1.17;;;;;;;19.86;42.96;101586.47;4973279;28;20026;-72
2022/07/14 09:44:10;;;;;;;10.48;1.42;;;;;;;20.01;42.23;101584.44;4953053;28;20031;-73
2022/07/14 09:46:57;;;;;;;1.40;0.75;;;;;;;20.70;40.46;101572.47;4959449;28;20031;-72
2022/07/14 09:49:25;;;;;;;8.57;1.00;;;;;;;20.54;40.83;101580.06;4953294;28;20081;-72
2022/07/14 09:52:01;;;;;;;4.20;1.08;;;;;;;20.82;39.08;101570.81;4976284;28;20035;-72
2022/07/14 09:54:47;;;;;;;5.45;1.17;;;;;;;21.18;38.27;101570.41;4969148;28;20051;-73
2022/07/14 09:57:12;;;;;;;6.38;0.95;;;;;;;20.82;36.94;101577.16;4969450;28;20031;-73
2022/07/14 10:00:12;;;;;;;5.93;1.20;;;;;;;20.38;40.51;101579.53;4952297;28;20026;-73
2022/07/14 10:02:40;;;;;;;6.22;1.17;;;;;;;19.62;41.30;101580.38;4941902;28;20293;-73
2022/07/14 10:05:12;;;;;;;3.15;1.05;;;;;;;19.96;40.36;101581.47;4967418;28;20121;-72
2022/07/14 10:07:41;;;;;;;4.30;1.10;;;;;;;20.85;38.71;101582.25;4960784;28;20498;-73
2022/07/14 10:10:12;;;;;;;6.55;1.48;;;;;;;20.10;40.01;101577.72;4952175;28;20038;-72
2022/07/14 10:12:41;;;;;;;4.43;0.82;;;;;;;20.08;40.42;101579.81;4969782;28;20030;-70
2022/07/14 10:15:09;;;;;;;6.82;1.33;;;;;;;20.08;41.46;101585.31;4954854;28;20035;-72
2022/07/14 10:17:37;;;;;;;3.97;1.10;;;;;;;19.90;41.19;101576.78;4981541;28;20484;-74
2022/07/14 10:20:06;;;;;;;7.22;1.17;;;;;;;20.93;40.09;101572.09;4955299;28;20093;-72
2022/07/14 10:22:32;;;;;;;3.88;1.17;;;;;;;20.29;39.79;101565.97;4978603;28;20018;-73
2022/07/14 10:24:58;;;;;;;4.65;0.95;;;;;;;20.40;40.21;101555.41;4971420;28;20027;-74
2022/07/14 10:27:26;;;;;;;6.35;1.27;;;;;;;20.76;39.36;101550.47;4977513;28;20050;-73
2022/07/14 10:29:53;;;;;;;3.15;1.00;;;;;;;20.25;40.19;101548.19;4977366;28;20026;-73
2022/07/14 10:32:35;;;;;;;5.50;1.38;;;;;;;20.81;39.89;101552.63;4954662;28;20050;-73
2022/07/14 10:35:10;;;;;;;2.35;0.88;;;;;;;20.24;41.60;101556.66;4964833;28;20031;-73
2022/07/14 10:37:46;;;;;;;6.15;1.20;;;;;;;19.93;42.26;101576.38;4968862;28;20043;-72
2022/07/14 10:40:16;;;;;;;5.75;1.08;;;;;;;20.04;42.03;101557.41;4961103;28;20049;-71
2022/07/14 10:43:04;;;;;;;6.40;1.33;;;;;;;20.25;42.28;101553.69;4969640;28;20034;-71
2022/07/14 10:45:31;;;;;;;4.38;1.00;;;;;;;20.85;41.19;101560.22;4970828;28;20023;-72
2022/07/14 10:47:57;;;;;;;6.90;1.70;;;;;;;20.54;42.69;101551.72;4966748;28;20053;-72
2022/07/14 10:50:27;;;;;;;4.82;1.10;;;;;;;20.31;44.02;101552.88;4986032;28;20030;-72
2022/07/14 10:52:52;;;;;;;4.82;1.10;;;;;;;19.87;45.15;101544.19;4972259;28;20468;-72
2022/07/14 10:55:34;;;;;;;6.55;1.17;;;;;;;19.48;46.18;101553.84;4967282;28;20038;-72
2022/07/14 10:58:00;;;;;;;6.13;1.30;;;;;;;20.06;45.52;101555.28;4962895;28;20054;-73
2022/07/14 11:00:41;;;;;;;8.55;1.95;;;;;;;19.66;46.02;101548.72;4965351;28;20030;-73
2022/07/14 11:03:32;;;;;;;14.15;1.98;;;;;;;20.05;46.03;101548.09;4957172;28;20034;-72
2022/07/14 11:06:05;;;;;;;5.68;1.50;;;;;;;20.15;45.58;101542.22;4956293;28;20039;-73
2022/07/14 11:08:31;;;;;;;6.78;1.42;;;;;;;20.35;45.58;101546.97;4952441;28;20031;-72
2022/07/14 11:10:58;;;;;;;8.80;1.40;;;;;;;20.33;45.91;101545.25;4952127;28;20038;-72
2022/07/14 11:13:24;;;;;;;8.57;1.38;;;;;;;20.08;45.58;101574.31;4952738;28;20118;-73
2022/07/14 11:15:59;;;;;;;4.40;1.10;;;;;;;19.76;46.30;101559.38;4968353;28;20105;-72
2022/07/14 11:18:35;;;;;;;6.22;1.30;;;;;;;20.09;45.61;101559.56;4951828;28;20030;-73
2022/07/14 11:21:18;;;;;;;6.60;1.40;;;;;;;19.79;47.50;101562.53;4951523;28;20035;-72
2022/07/14 11:23:48;;;;;;;15.75;2.30;;;;;;;20.36;46.04;101565.16;4957145;28;20125;-72
2022/07/14 11:26:36;;;;;;;7.65;1.77;;;;;;;20.90;44.75;101539.50;4957271;28;20062;-72
2022/07/14 11:29:08;;;;;;;7.97;1.50;;;;;;;20.53;45.33;101544.50;4951823;28;20038;-72
2022/07/14 11:31:53;;;;;;;4.53;1.05;;;;;;;19.93;47.01;101551.63;4952155;28;20026;-72
2022/07/14 11:37:16;;;;;;;8.43;1.60;;;;;;;20.06;47.08;101555.28;4964631;28;20133;-72
2022/07/14 11:39:45;;;;;;;9.68;1.50;;;;;;;20.48;45.71;101552.53;4950538;28;20015;-73
2022/07/14 11:42:12;;;;;;;3.47;1.15;;;;;;;20.20;46.47;101550.69;4954858;28;20027;-72
2022/07/14 11:44:41;;;;;;;9.38;1.42;;;;;;;19.63;47.00;101557.38;4951403;28;20023;-72
2022/07/14 11:47:18;;;;;;;9.45;1.45;;;;;;;19.62;46.36;101547.41;4951697;28;20035;-73
2022/07/14 11:49:58;;;;;;;8.82;1.15;;;;;;;19.79;45.69;101559.78;4969741;28;20039;-73
2022/07/14 11:52:33;;;;;;;9.05;1.50;;;;;;;20.08;45.19;101552.31;4967121;28;20109;-73